createdAt,value
2017-11-20T00:00:47.269Z,2.60
2017-11-20T00:03:15.344Z,2.60
2017-11-20T00:05:43.431Z,2.60
2017-11-20T00:08:12.272Z,2.50
2017-11-20T00:10:40.356Z,2.50
2017-11-20T00:13:08.442Z,2.60
2017-11-20T00:15:36.520Z,2.50
2017-11-20T00:18:04.598Z,2.50
2017-11-20T00:20:33.468Z,2.50
2017-11-20T00:23:01.540Z,2.50
2017-11-20T00:25:29.616Z,2.60
2017-11-20T00:27:57.700Z,2.60
2017-11-20T00:30:26.542Z,2.50
2017-11-20T00:32:54.631Z,2.50
2017-11-20T00:35:22.710Z,2.60
2017-11-20T00:37:50.807Z,2.50
2017-11-20T00:40:19.660Z,2.50
2017-11-20T00:42:47.742Z,2.50
2017-11-20T00:45:15.817Z,2.60
2017-11-20T00:47:43.901Z,2.60
2017-11-20T00:50:12.753Z,2.70
2017-11-20T00:52:40.840Z,2.60
2017-11-20T00:55:08.919Z,2.60
2017-11-20T00:57:37.765Z,2.60
2017-11-20T01:00:05.836Z,2.60
2017-11-20T01:02:33.920Z,2.70
2017-11-20T01:05:01.999Z,2.70
2017-11-20T01:07:30.083Z,2.70
2017-11-20T01:09:58.160Z,2.80
2017-11-20T01:12:27.028Z,2.80
2017-11-20T01:14:55.109Z,2.80
2017-11-20T01:17:23.185Z,2.80
2017-11-20T01:19:52.036Z,2.90
2017-11-20T01:22:20.116Z,2.90
2017-11-20T01:24:48.200Z,2.90
2017-11-20T01:27:16.280Z,2.90
2017-11-20T01:29:44.370Z,2.90
2017-11-20T01:32:13.208Z,2.90
2017-11-20T01:34:41.293Z,2.90
2017-11-20T01:37:09.366Z,3.00
2017-11-20T01:39:37.462Z,3.00
2017-11-20T01:42:06.310Z,3.10
2017-11-20T01:44:34.398Z,3.00
2017-11-20T01:47:02.485Z,3.00
2017-11-20T01:49:31.335Z,3.00
2017-11-20T01:51:59.416Z,3.00
2017-11-20T01:54:27.500Z,3.00
2017-11-20T01:56:55.585Z,3.00
2017-11-20T01:59:23.667Z,3.00
2017-11-20T02:01:51.755Z,3.00
2017-11-20T02:04:19.831Z,3.00
2017-11-20T02:06:47.916Z,3.00
2017-11-20T02:09:16.005Z,3.00
2017-11-20T02:11:44.088Z,3.00
2017-11-20T02:14:12.168Z,3.00
2017-11-20T02:16:40.255Z,3.00
2017-11-20T02:19:09.109Z,2.90
2017-11-20T02:21:37.192Z,2.90
2017-11-20T02:24:05.280Z,2.90
2017-11-20T02:26:34.126Z,2.90
2017-11-20T02:29:02.266Z,2.90
2017-11-20T02:31:30.352Z,2.90
2017-11-20T02:33:58.443Z,2.90
2017-11-20T02:36:26.528Z,2.90
2017-11-20T02:38:54.612Z,2.90
2017-11-20T02:41:23.464Z,2.90
2017-11-20T02:43:51.544Z,2.90
2017-11-20T02:46:19.640Z,2.90
2017-11-20T02:48:48.498Z,2.70
2017-11-20T02:51:16.606Z,2.70
2017-11-20T02:53:45.452Z,2.60
2017-11-20T02:56:13.545Z,2.60
2017-11-20T02:58:41.623Z,2.60
2017-11-20T03:01:09.721Z,2.60
2017-11-20T03:03:37.799Z,2.60
2017-11-20T03:06:05.897Z,2.50
2017-11-20T03:08:33.968Z,2.60
2017-11-20T03:11:02.063Z,2.60
2017-11-20T03:13:30.146Z,2.60
2017-11-20T03:15:58.231Z,2.60
2017-11-20T03:18:27.080Z,2.60
2017-11-20T03:20:55.178Z,2.60
2017-11-20T03:23:23.256Z,2.60
2017-11-20T03:25:52.236Z,2.60
2017-11-20T03:28:20.325Z,2.60
2017-11-20T03:30:49.173Z,2.50
2017-11-20T03:33:17.273Z,2.60
2017-11-20T03:35:45.355Z,2.60
2017-11-20T03:38:13.453Z,2.60
2017-11-20T03:40:41.549Z,2.60
2017-11-20T03:43:09.644Z,2.60
2017-11-20T03:45:37.820Z,2.70
2017-11-20T03:48:07.467Z,2.60
2017-11-20T03:50:35.597Z,2.60
2017-11-20T03:53:05.192Z,2.60
2017-11-20T03:55:33.282Z,2.60
2017-11-20T03:58:02.152Z,2.60
2017-11-20T04:00:30.228Z,2.60
2017-11-20T04:02:58.329Z,2.70
2017-11-20T04:05:27.188Z,2.70
2017-11-20T04:07:55.376Z,2.70
2017-11-20T04:10:23.469Z,2.70
2017-11-20T04:12:51.553Z,2.70
2017-11-20T04:15:19.653Z,2.70
2017-11-20T04:17:47.741Z,2.70
2017-11-20T04:20:15.834Z,2.70
2017-11-20T04:22:44.676Z,2.70
2017-11-20T04:25:12.768Z,2.70
2017-11-20T04:27:40.846Z,2.60
2017-11-20T04:30:08.960Z,2.70
2017-11-20T04:32:37.048Z,2.70
2017-11-20T04:35:05.133Z,2.60
2017-11-20T04:37:33.196Z,2.60
2017-11-20T04:40:01.295Z,2.60
2017-11-20T04:42:29.376Z,2.60
2017-11-20T04:44:58.226Z,2.60
2017-11-20T04:47:26.320Z,2.60
2017-11-20T04:49:54.404Z,2.60
2017-11-20T04:52:23.251Z,2.60
2017-11-20T04:54:51.327Z,2.60
2017-11-20T04:57:19.418Z,2.60
2017-11-20T04:59:47.505Z,2.60
2017-11-20T05:02:16.364Z,2.60
2017-11-20T05:04:44.449Z,2.60
2017-11-20T05:07:12.533Z,2.60
2017-11-20T05:09:41.387Z,2.60
2017-11-20T05:12:09.471Z,2.60
2017-11-20T05:14:37.548Z,2.60
2017-11-20T05:17:05.630Z,2.60
2017-11-20T05:19:34.472Z,2.60
2017-11-20T05:22:02.564Z,2.60
2017-11-20T05:24:30.635Z,2.60
2017-11-20T05:26:58.721Z,2.60
2017-11-20T05:29:26.800Z,2.70
2017-11-20T05:31:55.651Z,2.70
2017-11-20T05:34:23.727Z,2.60
2017-11-20T05:36:51.807Z,2.70
2017-11-20T05:39:19.883Z,2.70
2017-11-20T05:41:47.972Z,2.60
2017-11-20T05:44:16.829Z,2.70
2017-11-20T05:46:44.903Z,2.60
2017-11-20T05:49:12.988Z,2.60
2017-11-20T05:51:41.069Z,2.70
2017-11-20T05:54:09.149Z,2.60
2017-11-20T05:56:37.991Z,2.70
2017-11-20T05:59:06.089Z,2.60
2017-11-20T06:01:34.171Z,2.70
2017-11-20T06:04:02.248Z,2.60
2017-11-20T06:06:31.087Z,2.60
2017-11-20T06:08:59.188Z,2.60
2017-11-20T06:11:27.271Z,2.60
2017-11-20T06:13:56.123Z,2.60
2017-11-20T06:16:24.209Z,2.60
2017-11-20T06:18:52.282Z,2.60
2017-11-20T06:21:20.373Z,2.60
2017-11-20T06:23:48.459Z,2.60
2017-11-20T06:26:16.699Z,2.50
2017-11-20T06:28:46.292Z,2.60
2017-11-20T06:31:14.375Z,2.60
2017-11-20T06:33:42.456Z,2.50
2017-11-20T06:36:11.323Z,2.50
2017-11-20T06:38:39.392Z,2.50
2017-11-20T06:41:07.489Z,2.50
2017-11-20T06:43:36.338Z,2.50
2017-11-20T06:46:04.529Z,2.50
2017-11-20T06:48:34.268Z,2.50
2017-11-20T06:51:02.339Z,2.50
2017-11-20T06:53:30.429Z,2.50
2017-11-20T06:55:58.539Z,2.50
2017-11-20T06:58:26.627Z,2.50
2017-11-20T07:00:54.710Z,2.50
2017-11-20T07:03:23.562Z,2.50
2017-11-20T07:05:51.638Z,2.50
2017-11-20T07:08:19.759Z,2.50
2017-11-20T07:10:47.854Z,2.50
2017-11-20T07:13:15.939Z,2.50
2017-11-20T07:15:44.020Z,2.50
2017-11-20T07:18:12.100Z,2.50
2017-11-20T07:20:40.187Z,2.50
2017-11-20T07:23:09.044Z,2.50
2017-11-20T07:39:27.134Z,2.70
2017-11-20T07:41:55.274Z,2.60
2017-11-20T07:44:23.353Z,2.70
2017-11-20T07:46:51.601Z,2.70
2017-11-20T07:49:19.690Z,2.60
2017-11-20T07:51:47.833Z,2.60
2017-11-20T07:54:16.016Z,2.60
2017-11-20T07:56:44.101Z,2.70
2017-11-20T07:59:12.950Z,2.70
2017-11-20T08:01:41.044Z,2.70
2017-11-20T08:04:09.123Z,2.70
2017-11-20T08:06:37.968Z,2.70
2017-11-20T08:09:06.053Z,2.70
2017-11-20T08:11:34.124Z,2.70
2017-11-20T08:14:02.230Z,2.80
2017-11-20T08:16:31.080Z,2.80
2017-11-20T08:18:59.165Z,2.80
2017-11-20T08:21:27.247Z,2.80
2017-11-20T08:23:55.332Z,2.70
2017-11-20T08:26:24.179Z,2.80
2017-11-20T08:28:52.263Z,2.80
2017-11-20T08:31:20.357Z,2.80
2017-11-20T08:33:49.211Z,2.80
2017-11-20T08:36:17.296Z,2.80
2017-11-20T08:38:45.376Z,2.80
2017-11-20T08:41:13.452Z,2.80
2017-11-20T08:43:42.308Z,2.90
2017-11-20T08:46:10.400Z,2.90
2017-11-20T08:48:38.507Z,2.90
2017-11-20T08:51:06.592Z,3.00
2017-11-20T08:53:34.817Z,3.00
2017-11-20T08:56:02.908Z,3.00
2017-11-20T08:58:31.053Z,3.00
2017-11-20T09:00:59.158Z,3.00
2017-11-20T09:03:27.384Z,3.10
2017-11-20T09:05:55.490Z,3.10
2017-11-20T09:08:24.340Z,3.10
2017-11-20T09:10:52.433Z,3.10
2017-11-20T09:13:20.516Z,3.20
2017-11-20T09:15:49.375Z,3.10
2017-11-20T09:18:17.464Z,3.10
2017-11-20T09:20:45.553Z,3.20
2017-11-20T09:23:14.424Z,3.10
2017-11-20T09:25:42.503Z,3.10
2017-11-20T09:28:11.353Z,3.20
2017-11-20T09:30:39.436Z,3.10
2017-11-20T09:33:07.539Z,3.20
2017-11-20T09:35:36.395Z,3.30
2017-11-20T09:38:04.481Z,3.20
2017-11-20T09:40:32.587Z,3.30
2017-11-20T09:43:00.699Z,3.20
2017-11-20T09:45:28.813Z,3.30
2017-11-20T09:47:56.897Z,3.30
2017-11-20T09:50:24.997Z,3.30
2017-11-20T09:52:53.075Z,3.30
2017-11-20T09:55:21.171Z,3.30
2017-11-20T09:57:49.256Z,3.30
2017-11-20T10:00:18.137Z,3.40
2017-11-20T10:02:46.208Z,3.40
2017-11-20T10:05:14.388Z,3.30
2017-11-20T10:07:42.468Z,3.30
2017-11-20T10:10:10.723Z,3.40
2017-11-20T10:12:38.811Z,3.40
2017-11-20T10:15:07.654Z,3.30
2017-11-20T10:17:35.734Z,3.40
2017-11-20T10:20:03.832Z,3.30
2017-11-20T10:22:31.967Z,3.40
2017-11-20T10:25:00.055Z,3.40
2017-11-20T10:27:28.141Z,3.40
2017-11-20T10:29:57.013Z,3.40
2017-11-20T10:32:25.101Z,3.40
2017-11-20T10:34:53.953Z,3.40
2017-11-20T10:37:22.036Z,3.40
2017-11-20T10:39:50.133Z,3.40
2017-11-20T10:42:18.199Z,3.40
2017-11-20T10:44:46.276Z,3.50
2017-11-20T10:47:15.119Z,3.50
2017-11-20T10:49:43.195Z,3.50
2017-11-20T10:52:11.285Z,3.60
2017-11-20T10:54:39.352Z,3.50
2017-11-20T10:57:07.437Z,3.50
2017-11-20T10:59:35.519Z,3.50
2017-11-20T11:02:04.359Z,3.50
2017-11-20T11:04:32.444Z,3.50
2017-11-20T11:07:00.536Z,3.50
2017-11-20T11:09:29.388Z,3.50
2017-11-20T11:11:57.476Z,3.50
2017-11-20T11:14:25.556Z,3.50
2017-11-20T11:16:53.737Z,3.50
2017-11-20T11:19:22.589Z,3.40
2017-11-20T11:21:50.663Z,3.40
2017-11-20T11:24:18.845Z,3.40
2017-11-20T11:26:46.929Z,3.40
2017-11-20T11:29:15.105Z,3.40
2017-11-20T11:31:43.189Z,3.40
2017-11-20T11:34:11.276Z,3.50
2017-11-20T11:36:39.404Z,3.40
2017-11-20T11:39:07.487Z,3.40
2017-11-20T11:41:35.856Z,3.40
2017-11-20T11:44:03.956Z,3.50
2017-11-20T11:46:32.209Z,3.50
2017-11-20T11:49:00.351Z,3.50
2017-11-20T11:51:28.424Z,3.50
2017-11-20T11:53:56.520Z,3.40
2017-11-20T11:56:24.625Z,3.30
2017-11-20T11:58:52.709Z,3.20
2017-11-20T12:01:20.800Z,3.30
2017-11-20T12:03:48.981Z,3.30
2017-11-20T12:06:17.172Z,3.20
2017-11-20T12:08:45.246Z,3.10
2017-11-20T12:11:13.330Z,3.10
2017-11-20T12:13:41.417Z,3.10
2017-11-20T12:16:10.272Z,3.10
2017-11-20T12:18:38.562Z,3.10
2017-11-20T12:21:06.643Z,3.20
2017-11-20T12:23:34.723Z,3.10
2017-11-20T12:26:02.841Z,3.00
2017-11-20T12:28:31.034Z,3.10
2017-11-20T12:30:59.106Z,2.90
2017-11-20T12:33:27.966Z,2.90
2017-11-20T12:35:56.140Z,2.90
2017-11-20T12:38:24.336Z,2.90
2017-11-20T12:40:52.616Z,2.90
2017-11-20T12:43:20.699Z,2.90
2017-11-20T12:45:49.544Z,2.90
2017-11-20T12:48:17.628Z,2.90
2017-11-20T12:50:45.703Z,2.90
2017-11-20T12:53:13.789Z,2.90
2017-11-20T12:55:41.865Z,3.00
2017-11-20T12:58:09.951Z,3.00
2017-11-20T13:00:38.787Z,2.90
2017-11-20T13:03:06.881Z,2.90
2017-11-20T13:05:34.962Z,2.90
2017-11-20T13:08:03.825Z,2.90
2017-11-20T13:10:31.892Z,2.90
2017-11-20T13:13:00.002Z,2.90
2017-11-20T13:15:28.085Z,3.00
2017-11-20T13:17:56.164Z,3.00
2017-11-20T13:20:24.248Z,3.00
2017-11-20T13:22:52.332Z,2.90
2017-11-20T13:25:20.425Z,2.90
2017-11-20T13:27:48.506Z,2.90
2017-11-20T13:30:16.810Z,2.90
2017-11-20T13:32:44.892Z,2.90
2017-11-20T13:35:12.994Z,2.90
2017-11-20T13:37:41.080Z,2.90
2017-11-20T13:40:09.161Z,2.90
2017-11-20T13:42:37.240Z,2.90
2017-11-20T13:45:06.096Z,2.70
2017-11-20T13:47:34.180Z,2.70
2017-11-20T13:50:02.268Z,2.70
2017-11-20T13:52:31.115Z,2.70
2017-11-20T13:54:59.219Z,2.70
2017-11-20T13:57:27.296Z,2.70
2017-11-20T13:59:56.149Z,2.60
2017-11-20T14:02:24.243Z,2.70
2017-11-20T14:04:52.320Z,2.60
2017-11-20T14:07:20.408Z,2.60
2017-11-20T14:09:49.253Z,2.60
2017-11-20T14:12:17.333Z,2.60
2017-11-20T14:14:45.498Z,2.60
2017-11-20T14:17:13.581Z,2.50
2017-11-20T14:19:41.663Z,2.60
2017-11-20T14:22:10.649Z,2.60
2017-11-20T14:24:38.803Z,2.60
2017-11-20T14:27:06.884Z,2.60
2017-11-20T14:29:34.984Z,2.80
2017-11-20T14:32:03.825Z,2.70
2017-11-20T14:34:31.913Z,2.70
2017-11-20T14:37:00.006Z,2.60
2017-11-20T14:42:26.525Z,2.50
2017-11-20T14:44:54.608Z,2.40
2017-11-20T14:47:22.688Z,2.50
2017-11-20T14:49:50.768Z,2.50
2017-11-20T14:52:27.081Z,2.30
2017-11-20T14:54:55.120Z,2.20
2017-11-20T14:57:23.203Z,2.30
2017-11-20T14:59:51.276Z,2.30
2017-11-20T15:02:19.370Z,2.20
2017-11-20T15:04:47.439Z,2.20
2017-11-20T15:07:15.515Z,2.20
2017-11-20T15:09:43.592Z,2.10
2017-11-20T15:12:11.686Z,2.20
2017-11-20T15:14:40.527Z,2.10
2017-11-20T15:17:08.624Z,2.10
2017-11-20T15:19:36.705Z,2.10
2017-11-20T15:22:04.803Z,2.10
2017-11-20T15:24:33.641Z,2.20
2017-11-20T15:27:01.719Z,2.20
2017-11-20T15:29:29.915Z,2.20
2017-11-20T15:31:58.188Z,2.20
2017-11-20T15:34:27.081Z,2.10
2017-11-20T15:36:55.968Z,2.20
2017-11-20T15:39:24.821Z,2.30
2017-11-20T15:41:53.452Z,2.30
2017-11-20T15:44:22.307Z,2.00
2017-11-20T15:46:50.493Z,2.00
2017-11-20T15:49:20.089Z,2.00
2017-11-20T15:51:48.268Z,2.00
2017-11-20T15:54:16.360Z,2.00
2017-11-20T15:56:45.210Z,2.10
2017-11-20T15:59:13.302Z,2.10
2017-11-20T16:01:41.396Z,2.00
2017-11-20T16:04:10.266Z,2.00
2017-11-20T16:06:38.336Z,2.00
2017-11-20T16:09:07.188Z,2.10
2017-11-20T16:11:35.288Z,2.00
2017-11-20T16:14:03.377Z,2.00
2017-11-20T16:16:32.236Z,2.00
2017-11-20T16:19:00.310Z,2.00
2017-11-20T16:21:28.400Z,2.00
2017-11-20T16:23:57.252Z,1.90
2017-11-20T16:26:25.340Z,1.90
2017-11-20T16:28:53.427Z,1.90
2017-11-20T16:31:21.522Z,2.00
2017-11-20T16:33:49.596Z,2.00
2017-11-20T16:36:17.824Z,2.00
2017-11-20T16:38:45.908Z,2.00
2017-11-20T16:41:13.995Z,2.10
2017-11-20T16:43:42.840Z,2.00
2017-11-20T16:46:10.918Z,2.00
2017-11-20T16:48:39.200Z,2.10
2017-11-20T16:51:07.285Z,2.10
2017-11-20T16:53:36.135Z,2.10
2017-11-20T16:56:04.208Z,2.10
2017-11-20T16:58:44.071Z,2.10
2017-11-20T17:01:12.151Z,2.10
2017-11-20T17:03:40.244Z,2.10
2017-11-20T17:06:09.087Z,2.10
2017-11-20T17:08:37.181Z,2.10
2017-11-20T17:11:05.248Z,2.10
2017-11-20T17:17:37.726Z,2.20
2017-11-20T17:20:05.807Z,2.20
2017-11-20T17:22:33.909Z,2.20
2017-11-20T17:25:02.762Z,2.20
2017-11-20T17:27:30.852Z,2.20
2017-11-20T17:29:58.937Z,2.20
2017-11-20T17:32:27.780Z,2.10
2017-11-20T17:34:55.863Z,2.20
2017-11-20T17:37:23.955Z,2.20
2017-11-20T17:39:52.100Z,2.10
2017-11-20T17:42:20.291Z,2.20
2017-11-20T17:44:48.571Z,2.20
2017-11-20T17:47:17.632Z,2.20
2017-11-20T17:49:46.524Z,2.20
2017-11-20T17:52:14.612Z,2.20
2017-11-20T17:54:42.759Z,2.20
2017-11-20T17:57:10.834Z,2.20
2017-11-20T17:59:38.977Z,2.20
2017-11-20T18:02:07.057Z,2.20
2017-11-20T18:04:35.170Z,2.20
2017-11-20T18:07:03.241Z,2.30
2017-11-20T18:09:31.332Z,2.20
2017-11-20T18:12:00.171Z,2.10
2017-11-20T18:14:28.264Z,2.10
2017-11-20T18:16:56.347Z,2.10
2017-11-20T18:19:24.431Z,2.10
2017-11-20T18:21:53.288Z,2.30
2017-11-20T18:24:21.376Z,2.20
2017-11-20T18:26:49.468Z,2.20
2017-11-20T18:29:17.655Z,2.20
2017-11-20T18:31:45.809Z,2.20
2017-11-20T18:34:13.891Z,2.30
2017-11-20T18:36:41.995Z,2.30
2017-11-20T18:39:10.086Z,2.30
2017-11-20T18:41:38.197Z,2.30
2017-11-20T18:44:07.032Z,2.30
2017-11-20T18:46:35.124Z,2.30
2017-11-20T18:49:03.208Z,2.30
2017-11-20T18:51:32.059Z,2.30
2017-11-20T18:54:00.139Z,2.30
2017-11-20T18:56:28.238Z,2.30
2017-11-20T18:58:57.215Z,2.40
2017-11-20T19:01:36.931Z,2.30
2017-11-20T19:04:16.634Z,2.40
2017-11-20T19:06:56.462Z,2.40
2017-11-20T19:09:24.537Z,2.40
2017-11-20T19:11:52.628Z,2.40
2017-11-20T19:14:20.707Z,2.40
2017-11-20T19:16:48.801Z,2.40
2017-11-20T19:19:16.877Z,2.40
2017-11-20T19:21:44.964Z,2.40
2017-11-20T19:24:13.050Z,2.30
2017-11-20T19:26:41.903Z,2.40
2017-11-20T19:29:09.988Z,2.40
2017-11-20T19:31:38.076Z,2.30
2017-11-20T19:34:06.936Z,2.50
2017-11-20T19:36:35.022Z,2.50
2017-11-20T19:39:03.207Z,2.50
2017-11-20T19:41:31.480Z,2.60
2017-11-20T19:43:59.577Z,2.60
2017-11-20T19:46:27.839Z,2.60
2017-11-20T19:48:55.963Z,2.60
2017-11-20T19:51:24.665Z,2.60
2017-11-20T19:53:52.936Z,2.70
2017-11-20T19:56:21.419Z,2.70
2017-11-20T19:58:49.672Z,2.60
2017-11-20T20:01:17.870Z,2.70
2017-11-20T20:03:46.052Z,2.70
2017-11-20T20:06:14.192Z,2.70
2017-11-20T20:08:43.284Z,2.70
2017-11-20T20:11:11.979Z,2.70
2017-11-20T20:13:46.979Z,2.70
2017-11-20T20:16:20.248Z,2.70
2017-11-20T20:18:48.326Z,2.80
2017-11-20T20:21:16.648Z,2.80
2017-11-20T20:23:44.787Z,2.80
2017-11-20T20:26:13.016Z,2.80
2017-11-20T20:28:41.386Z,2.80
2017-11-20T20:31:09.490Z,2.90
2017-11-20T20:33:37.770Z,2.90
2017-11-20T20:36:06.649Z,2.90
2017-11-20T20:38:35.099Z,2.90
2017-11-20T20:41:03.269Z,2.90
2017-11-20T20:43:31.377Z,2.90
2017-11-20T20:45:59.501Z,3.00
2017-11-20T20:48:27.630Z,3.00
2017-11-20T20:50:55.753Z,3.00
2017-11-20T20:53:23.827Z,3.00
2017-11-20T20:55:51.964Z,3.00
2017-11-20T20:58:20.050Z,3.00
2017-11-20T21:00:48.228Z,3.10
2017-11-20T21:03:16.315Z,3.00
2017-11-20T21:05:46.827Z,3.10
2017-11-20T21:11:02.699Z,3.10
2017-11-20T21:13:30.866Z,3.10
2017-11-20T21:15:58.931Z,3.20
2017-11-20T21:18:27.023Z,3.10
2017-11-20T21:20:55.109Z,3.20
2017-11-20T21:23:23.193Z,3.20
2017-11-20T21:25:51.357Z,3.20
2017-11-20T21:28:20.245Z,3.30
2017-11-20T21:30:48.334Z,3.30
2017-11-20T21:33:16.430Z,3.30
2017-11-20T21:35:44.651Z,3.40
2017-11-20T21:38:12.746Z,3.40
2017-11-20T21:40:40.832Z,3.40
2017-11-20T21:43:08.961Z,3.50
2017-11-20T21:45:37.241Z,3.50
2017-11-20T21:48:05.417Z,3.50
2017-11-20T21:50:33.493Z,3.50
2017-11-20T21:53:01.764Z,3.50
2017-11-20T21:55:29.855Z,3.60
2017-11-20T21:57:58.697Z,3.70
2017-11-20T22:00:26.794Z,3.70
2017-11-20T22:02:55.089Z,3.70
2017-11-20T22:05:23.174Z,3.70
2017-11-20T22:07:51.264Z,3.80
2017-11-20T22:10:19.476Z,3.80
2017-11-20T22:13:00.097Z,3.90
2017-11-20T22:15:28.200Z,3.80
2017-11-20T22:17:56.284Z,4.00
2017-11-20T22:20:24.369Z,3.90
2017-11-20T22:22:53.215Z,3.90
2017-11-20T22:25:21.308Z,3.90
2017-11-20T22:27:49.395Z,3.90
2017-11-20T22:30:18.253Z,4.00
2017-11-20T22:32:46.443Z,3.90
2017-11-20T22:35:15.321Z,4.00
2017-11-20T22:37:44.912Z,4.00
2017-11-20T22:40:13.072Z,4.00
2017-11-20T22:42:41.159Z,4.00
2017-11-20T22:45:09.340Z,4.00
2017-11-20T22:47:37.524Z,4.00
2017-11-20T22:50:05.609Z,4.10
2017-11-20T22:52:33.692Z,4.10
2017-11-20T22:55:02.545Z,4.10
2017-11-20T22:57:30.636Z,4.10
2017-11-20T22:59:58.707Z,4.20
2017-11-20T23:02:27.563Z,4.20
2017-11-20T23:04:55.644Z,4.20
2017-11-20T23:07:23.728Z,4.20
2017-11-20T23:09:51.803Z,4.20
2017-11-20T23:12:19.889Z,4.20
2017-11-20T23:14:48.734Z,4.20
2017-11-20T23:17:17.833Z,4.20
2017-11-20T23:19:45.904Z,4.20
2017-11-20T23:22:14.000Z,4.30
2017-11-20T23:24:42.856Z,4.20
2017-11-20T23:27:10.936Z,4.20
2017-11-20T23:29:39.097Z,4.30
2017-11-20T23:32:07.183Z,4.30
2017-11-20T23:34:35.368Z,4.30
2017-11-20T23:37:03.427Z,4.40
2017-11-20T23:39:31.508Z,4.30
2017-11-20T23:42:00.353Z,4.50
2017-11-20T23:44:28.474Z,4.40
2017-11-20T23:46:56.545Z,4.50
2017-11-20T23:49:25.694Z,4.50
2017-11-20T23:51:53.735Z,4.50
2017-11-20T23:54:33.495Z,4.50
2017-11-20T23:57:01.583Z,4.50
2017-11-20T23:59:29.664Z,4.50
